Time;durP1;ratioP1;P1;durP2;ratioP2;P2;SDS_P1;SDS_P2;PMS_P1;PMS_P2;Temp;Humidity;BMP_temperature;BMP_pressure;BME280_temperature;BME280_humidity;BME280_pressure;Samples;Min_cycle;Max_cycle;Signal;HPM_P1;HPM_P2
2022/06/02 00:00:19;;;;;;;0.60;0.35;;;15.80;93.80;;;14.41;68.35;100075.78;10568934;27;97445;-83
2022/06/02 00:05:51;;;;;;;0.65;0.15;;;15.70;93.60;;;14.36;68.94;100084.38;10578856;27;97536;-83
2022/06/02 00:11:19;;;;;;;0.17;0.13;;;15.70;94.30;;;14.30;69.23;100081.66;10543369;27;99034;-83
2022/06/02 00:16:46;;;;;;;0.83;0.23;;;15.60;95.20;;;14.21;69.49;100083.63;10549173;27;98374;-83
2022/06/02 00:22:00;;;;;;;0.13;0.13;;;15.50;95.20;;;14.18;69.94;100081.34;10564391;27;96884;-83
2022/06/02 00:27:37;;;;;;;0.17;0.17;;;15.50;96.00;;;14.14;70.13;100080.91;10565865;27;97363;-82
2022/06/02 00:33:40;;;;;;;0.10;0.10;;;15.50;96.50;;;14.04;69.83;100083.09;10562121;27;97482;-83
2022/06/02 00:38:43;;;;;;;0.00;0.00;;;15.40;96.90;;;13.95;69.97;100080.75;10537416;27;97790;-82
2022/06/02 00:43:59;;;;;;;0.10;0.10;;;15.30;97.20;;;13.89;70.32;100074.34;10567151;27;98559;-83
2022/06/02 00:49:41;;;;;;;0.20;0.20;;;15.20;97.50;;;13.78;70.34;100072.19;10562100;27;96616;-83
2022/06/02 01:01:15;;;;;;;0.53;0.40;;;14.90;98.50;;;13.61;70.81;100064.44;10357359;28;97733;-82
2022/06/02 01:06:43;;;;;;;0.13;0.13;;;14.90;99.00;;;13.59;71.04;100071.81;10558350;27;97703;-82
2022/06/02 01:12:04;;;;;;;0.15;0.15;;;14.80;99.20;;;13.64;71.47;100058.72;10561003;27;98248;-82
2022/06/02 01:17:35;;;;;;;0.33;0.33;;;14.90;99.80;;;13.68;71.51;100059.16;10556402;27;96654;-83
2022/06/02 01:23:36;;;;;;;0.07;0.07;;;15.00;99.90;;;13.70;71.38;100070.47;10549204;27;96715;-82
2022/06/02 01:29:19;;;;;;;0.20;0.20;;;15.00;99.90;;;13.75;71.38;100056.56;10567189;27;96600;-82
2022/06/02 01:35:04;;;;;;;0.90;0.40;;;15.00;99.90;;;13.81;71.27;100061.94;10578213;27;97954;-82
2022/06/02 01:40:48;;;;;;;0.03;0.03;;;15.10;99.90;;;13.91;71.01;100048.25;10557236;27;96558;-82
2022/06/02 01:46:14;;;;;;;0.37;0.37;;;15.20;99.90;;;14.04;71.49;100058.25;10568987;27;97396;-84
2022/06/02 01:51:23;;;;;;;0.10;0.10;;;15.30;99.90;;;14.11;71.31;100043.06;10557127;27;97527;-84
2022/06/02 01:56:50;;;;;;;0.15;0.15;;;15.40;99.90;;;14.19;71.56;100043.75;10563350;27;97787;-84
2022/06/02 02:02:12;;;;;;;0.03;0.03;;;15.50;99.80;;;14.28;71.65;100048.97;10566832;27;96656;-84
2022/06/02 02:07:40;;;;;;;0.17;0.17;;;15.60;99.90;;;14.31;71.86;100038.69;10532911;27;96488;-85
2022/06/02 02:13:30;;;;;;;0.10;0.10;;;15.60;99.90;;;14.36;71.75;100035.44;10550432;27;96626;-85
2022/06/02 02:19:05;;;;;;;0.30;0.17;;;15.60;99.90;;;14.42;71.88;100048.84;10578095;27;97386;-84
2022/06/02 02:24:14;;;;;;;0.13;0.10;;;15.70;99.90;;;14.49;71.70;100053.44;10550950;27;97010;-83
2022/06/02 02:29:36;;;;;;;0.50;0.47;;;15.70;99.90;;;14.55;71.72;100053.47;10540536;27;96677;-83
2022/06/02 02:35:09;;;;;;;;;;;15.80;99.90;;;14.61;72.27;100047.31;10579182;27;96685;-82
2022/06/02 02:40:34;;;;;;;;;;;15.80;99.90;;;14.62;72.59;100064.19;10564404;27;96635;-83
2022/06/02 02:46:08;;;;;;;0.20;0.15;;;15.90;99.90;;;14.70;72.89;100070.22;10568498;27;97394;-83
2022/06/02 02:51:39;;;;;;;0.35;0.13;;;16.00;99.90;;;14.90;72.00;100077.50;10560510;27;98983;-84
2022/06/02 02:57:07;;;;;;;0.30;0.20;;;16.10;99.90;;;15.11;72.61;100092.63;10559610;27;96614;-83
2022/06/02 03:02:26;;;;;;;0.10;0.10;;;16.30;99.90;;;15.35;71.36;100110.81;10553406;27;97707;-85
2022/06/02 03:07:30;;;;;;;0.10;0.10;;;16.50;99.90;;;15.68;69.62;100132.38;10551065;27;98257;-85
2022/06/02 03:13:08;;;;;;;0.25;0.20;;;16.80;99.90;;;15.92;70.02;100135.53;10527329;27;97073;-85
2022/06/02 03:18:48;;;;;;;0.60;0.50;;;17.00;99.90;;;15.99;72.09;100141.72;10530649;27;97378;-85
2022/06/02 03:24:13;;;;;;;0.25;0.25;;;17.10;99.90;;;15.83;73.93;100139.41;10519531;27;96602;-86
2022/06/02 03:29:28;;;;;;;2.85;1.20;;;16.90;99.90;;;15.66;75.81;100150.53;10539447;27;96456;-85
2022/06/02 03:34:51;;;;;;;0.20;0.20;;;16.80;99.90;;;15.56;77.17;100163.44;10532269;27;97238;-83
2022/06/02 03:40:22;;;;;;;0.40;0.22;;;16.70;99.90;;;15.48;78.43;100167.13;10533697;27;96533;-84
2022/06/02 03:45:56;;;;;;;0.20;0.20;;;16.70;99.90;;;15.39;80.19;100170.16;10505686;27;97588;-85
2022/06/02 03:51:18;;;;;;;0.30;0.20;;;16.70;99.90;;;15.30;81.94;100166.03;10505389;27;96493;-83
2022/06/02 03:56:34;;;;;;;0.45;0.20;;;16.60;99.90;;;15.26;83.75;100153.00;10534311;27;96993;-83
2022/06/02 04:01:48;;;;;;;0.20;0.17;;;16.50;99.90;;;15.24;84.61;100139.03;10503542;27;96819;-83
2022/06/02 04:07:22;;;;;;;0.57;0.47;;;16.50;99.90;;;15.22;85.37;100141.03;10514737;27;97376;-83
2022/06/02 04:20:34;;;;;;;0.30;0.20;;;16.50;99.90;;;15.16;86.30;100157.09;10564827;27;97467;-85
2022/06/02 04:25:15;;;;;;;0.35;0.35;;;16.40;99.90;;;15.11;87.46;100151.50;10556284;27;96580;-84
2022/06/02 04:30:53;;;;;;;0.25;0.25;;;16.40;99.90;;;15.09;88.45;100164.25;10552807;27;97353;-84
2022/06/02 04:36:36;;;;;;;0.22;0.22;;;16.40;99.90;;;15.03;89.69;100165.88;10556080;27;96629;-82
2022/06/02 04:41:55;;;;;;;1.23;0.55;;;16.40;99.90;;;14.98;89.96;100165.63;10544445;27;96457;-84
2022/06/02 04:47:26;;;;;;;0.55;0.30;;;16.40;99.90;;;14.99;90.33;100173.47;10577863;27;98778;-84
2022/06/02 04:52:48;;;;;;;0.50;0.50;;;16.40;99.90;;;15.00;90.92;100171.63;10563839;27;96635;-83
2022/06/02 04:57:57;;;;;;;0.45;0.45;;;16.30;99.90;;;15.02;90.56;100174.94;10549512;27;96854;-81
2022/06/02 05:03:37;;;;;;;0.75;0.30;;;16.40;99.90;;;15.02;90.70;100174.09;10566320;27;96807;-81
2022/06/02 05:08:53;;;;;;;2.35;0.20;;;16.30;99.90;;;15.03;91.37;100175.75;10545838;27;96873;-82
2022/06/02 05:14:50;;;;;;;0.43;0.27;;;16.30;99.90;;;15.06;91.36;100181.53;10546737;27;96670;-81
2022/06/02 05:20:43;;;;;;;0.60;0.40;;;16.40;99.90;;;15.09;91.63;100191.84;10524975;27;97286;-81
2022/06/02 05:26:08;;;;;;;2.42;0.65;;;16.40;99.90;;;15.14;92.11;100199.28;10444778;27;97249;-80
2022/06/02 05:32:00;;;;;;;0.60;0.38;;;16.40;99.90;;;15.19;92.66;100207.56;10580864;27;96526;-81
2022/06/02 05:38:00;;;;;;;0.17;0.07;;;16.50;99.90;;;15.23;93.34;100217.69;10593893;27;96588;-81
2022/06/02 05:43:35;;;;;;;0.93;0.73;;;16.60;99.90;;;15.27;93.91;100221.59;10594116;27;96511;-81
2022/06/02 05:48:56;;;;;;;0.75;0.50;;;16.60;99.90;;;15.35;93.47;100225.13;10569940;27;97076;-81
2022/06/02 05:54:05;;;;;;;0.82;0.40;;;16.70;99.90;;;15.42;93.89;100217.97;10552472;27;96615;-81
2022/06/02 05:59:20;;;;;;;1.63;0.52;;;16.70;99.90;;;15.51;93.98;100216.75;10563000;27;96542;-80
2022/06/02 06:04:44;;;;;;;0.55;0.50;;;16.80;99.90;;;15.62;94.22;100213.56;10594877;27;96474;-80
2022/06/02 06:10:22;;;;;;;1.00;0.55;;;16.90;99.90;;;15.75;93.81;100216.28;10596415;27;96555;-80
2022/06/02 06:15:48;;;;;;;0.10;0.10;;;17.00;99.90;;;15.92;94.65;100210.56;10573638;27;97774;-80
2022/06/02 06:21:19;;;;;;;0.63;0.50;;;17.20;99.90;;;16.10;94.00;100226.88;10567025;27;96578;-80
2022/06/02 06:27:30;;;;;;;0.53;0.33;;;17.40;99.90;;;16.28;93.44;100234.34;10578348;27;98508;-80
2022/06/02 06:33:00;;;;;;;1.40;0.60;;;17.60;99.90;;;16.50;92.20;100235.00;10550687;27;96702;-80
2022/06/02 06:38:30;;;;;;;0.38;0.28;;;17.80;99.90;;;16.75;91.91;100236.06;10575928;27;96518;-80
2022/06/02 06:44:15;;;;;;;0.80;0.60;;;18.00;99.90;;;16.99;90.13;100231.06;10582599;27;96905;-80
2022/06/02 06:49:42;;;;;;;0.75;0.57;;;18.10;99.90;;;17.15;89.89;100241.34;10562239;27;96667;-80
2022/06/02 06:55:39;;;;;;;0.43;0.32;;;18.30;99.90;;;17.35;89.07;100241.31;10592143;27;97504;-80
2022/06/02 07:00:50;;;;;;;0.38;0.30;;;18.50;99.90;;;17.49;89.00;100239.41;10556984;27;96453;-80
2022/06/02 07:06:02;;;;;;;0.77;0.40;;;18.70;99.90;;;17.58;89.02;100236.28;10561601;27;96566;-80
2022/06/02 07:16:56;;;;;;;1.42;0.50;;;18.90;99.90;;;17.75;88.12;100260.88;10548416;27;96648;-80
2022/06/02 07:22:03;;;;;;;0.55;0.45;;;19.00;99.90;;;17.85;88.37;100257.69;10549725;27;96855;-80
2022/06/02 07:27:48;;;;;;;1.05;0.57;;;19.20;99.90;;;18.03;88.21;100257.00;10549127;27;96510;-80
2022/06/02 07:33:47;;;;;;;0.38;0.38;;;19.30;99.90;;;18.37;87.54;100261.97;10536076;27;98484;-81
2022/06/02 07:39:24;;;;;;;1.00;0.60;;;19.50;99.90;;;18.72;86.63;100248.09;10576020;27;97415;-79
2022/06/02 07:44:45;;;;;;;1.10;0.50;;;19.90;99.90;;;18.93;84.03;100250.34;10575185;27;97359;-80
2022/06/02 07:50:09;;;;;;;0.40;0.40;;;20.10;99.90;;;19.17;84.19;100253.25;10550234;27;96670;-80
2022/06/02 07:55:22;;;;;;;0.55;0.45;;;20.40;99.90;;;19.32;81.55;100248.34;10590603;27;96552;-80
2022/06/02 08:00:40;;;;;;;0.93;0.52;;;20.50;99.90;;;19.53;81.31;100255.94;10571510;27;96654;-79
2022/06/02 08:06:12;;;;;;;0.55;0.47;;;20.70;99.90;;;19.83;79.62;100257.91;10538296;27;96617;-81
2022/06/02 08:11:51;;;;;;;0.40;0.30;;;21.00;99.90;;;20.13;77.74;100249.00;10583604;27;97564;-80
2022/06/02 08:17:35;;;;;;;0.95;0.50;;;21.30;99.90;;;20.38;75.50;100240.75;10552835;27;96504;-81
2022/06/02 08:22:48;;;;;;;0.38;0.30;;;21.50;99.90;;;20.60;75.03;100254.56;10516818;27;96845;-80
2022/06/02 08:28:34;;;;;;;0.57;0.20;;;21.70;99.90;;;20.82;71.34;100247.56;10550422;27;98451;-80
2022/06/02 08:34:21;;;;;;;0.50;0.40;;;22.00;99.60;;;21.10;69.91;100233.31;10507476;27;96675;-80
2022/06/02 08:39:46;;;;;;;0.38;0.35;;;22.20;99.90;;;21.41;66.86;100240.28;10556356;27;96767;-80
2022/06/02 08:45:17;;;;;;;0.70;0.57;;;22.50;99.90;;;21.60;62.98;100240.94;10528921;27;96640;-79
2022/06/02 08:51:24;;;;;;;0.75;0.55;;;22.70;98.20;;;21.87;61.90;100244.72;10548780;27;96844;-80
2022/06/02 08:57:14;;;;;;;0.45;0.40;;;23.00;96.50;;;22.11;59.66;100248.16;10588900;27;96759;-80
2022/06/02 09:03:00;;;;;;;0.38;0.38;;;23.20;94.40;;;22.39;60.50;100250.03;10553512;27;96548;-80
2022/06/02 09:09:03;;;;;;;0.32;0.30;;;23.50;96.00;;;22.60;58.62;100234.94;10569340;27;96453;-80
2022/06/02 09:14:47;;;;;;;0.52;0.32;;;23.70;94.30;;;22.90;58.38;100244.66;10544953;27;96650;-80
2022/06/02 09:20:12;;;;;;;0.22;0.22;;;23.90;93.20;;;23.07;56.31;100250.06;10566415;27;96859;-80
2022/06/02 09:25:48;;;;;;;0.80;0.40;;;24.10;90.90;;;23.27;55.87;100244.09;10552823;27;96855;-80
2022/06/02 09:30:54;;;;;;;1.67;0.93;;;24.20;90.10;;;23.56;56.28;100250.16;10535878;27;96531;-80
2022/06/02 09:36:47;;;;;;;0.55;0.30;;;24.50;91.70;;;23.73;55.52;100248.25;10582882;27;96673;-80
2022/06/02 09:42:05;;;;;;;0.30;0.22;;;24.80;91.10;;;23.72;54.51;100260.19;10570742;27;96589;-81
2022/06/02 09:47:33;;;;;;;0.88;0.35;;;24.80;88.60;;;23.62;54.41;100260.88;10584442;27;97233;-81
2022/06/02 09:53:06;;;;;;;0.47;0.38;;;24.80;85.90;;;23.46;55.04;100246.28;10595627;27;96459;-80
2022/06/02 09:58:45;;;;;;;2.20;0.40;;;24.60;88.20;;;23.56;54.98;100239.31;10567958;27;96755;-80
2022/06/02 10:04:07;;;;;;;0.60;0.47;;;24.60;88.40;;;23.85;54.73;100237.25;10552775;27;96742;-80
2022/06/02 10:09:23;;;;;;;0.30;0.30;;;24.80;87.80;;;24.16;52.83;100241.94;10575453;27;96470;-80
2022/06/02 10:15:03;;;;;;;0.20;0.20;;;25.10;85.60;;;24.26;52.03;100238.50;10568808;27;96590;-80
2022/06/02 10:20:37;;;;;;;0.20;0.20;;;25.20;83.40;;;24.20;52.62;100244.97;10551158;27;96680;-80
2022/06/02 10:26:01;;;;;;;0.30;0.20;;;25.20;82.60;;;24.25;53.20;100237.69;10576492;27;97309;-81
2022/06/02 10:31:21;;;;;;;0.77;0.38;;;25.20;84.60;;;24.53;51.75;100239.34;10593861;27;96536;-80
2022/06/02 10:36:53;;;;;;;0.40;0.32;;;25.40;82.00;;;24.83;51.12;100235.22;10593196;27;97691;-80
2022/06/02 10:42:41;;;;;;;0.40;0.30;;;25.80;80.20;;;25.06;51.83;100223.16;10565398;27;97194;-82
2022/06/02 10:47:50;;;;;;;0.45;0.45;;;26.00;81.70;;;25.22;51.43;100230.31;10550163;27;96340;-81
2022/06/02 10:53:46;;;;;;;0.70;0.50;;;26.10;80.80;;;25.49;51.84;100232.06;10559723;27;96846;-81
2022/06/02 10:59:16;;;;;;;0.65;0.40;;;26.40;81.90;;;25.61;50.07;100235.41;10571936;27;96676;-81
2022/06/02 11:05:15;;;;;;;0.90;0.63;;;26.50;78.90;;;25.85;49.29;100233.88;10576257;27;97080;-83
2022/06/02 11:11:02;;;;;;;0.35;0.35;;;26.70;77.60;;;26.01;49.67;100217.56;10554437;27;96522;-81
2022/06/02 11:16:41;;;;;;;0.85;0.40;;;26.90;77.70;;;26.09;47.73;100217.06;10590302;27;96917;-81
2022/06/02 11:22:16;;;;;;;0.47;0.43;;;27.10;74.00;;;25.91;47.83;100236.59;10555828;27;96805;-82
2022/06/02 11:27:40;;;;;;;0.32;0.32;;;26.80;73.30;;;25.95;47.66;100224.09;10591029;27;96648;-81
2022/06/02 11:33:39;;;;;;;1.25;0.20;;;26.90;74.20;;;26.23;47.47;100215.44;10574669;27;96588;-82
2022/06/02 11:39:15;;;;;;;0.28;0.28;;;27.10;73.50;;;26.49;46.82;100220.91;10558336;27;96768;-80
2022/06/02 11:45:15;;;;;;;0.38;0.30;;;27.40;72.10;;;26.74;46.00;100222.81;10580929;27;96607;-81
2022/06/02 11:50:56;;;;;;;0.15;0.13;;;27.70;71.50;;;26.97;44.28;100222.22;10530313;27;97236;-81
2022/06/02 11:56:45;;;;;;;0.40;0.30;;;27.90;68.50;;;27.09;42.22;100228.22;10553382;27;96683;-80
2022/06/02 12:02:13;;;;;;;0.63;0.20;;;28.00;64.00;;;27.17;41.65;100218.69;10550926;27;96593;-80
2022/06/02 12:07:38;;;;;;;0.47;0.40;;;28.10;63.70;;;27.15;41.89;100220.84;10548593;27;96427;-81
2022/06/02 12:13:05;;;;;;;0.20;0.20;;;28.20;63.40;;;27.22;40.05;100229.56;10549171;27;96475;-80
2022/06/02 12:18:41;;;;;;;0.20;0.20;;;28.20;59.60;;;27.43;41.02;100220.22;10546990;27;97666;-81
2022/06/02 12:24:08;;;;;;;0.00;0.00;;;28.40;61.50;;;27.59;41.09;100233.78;10548998;27;96368;-80
2022/06/02 12:29:42;;;;;;;0.13;0.10;;;28.50;61.80;;;27.61;40.52;100228.88;10553223;27;96499;-82
2022/06/02 12:35:41;;;;;;;0.10;0.08;;;28.50;59.70;;;27.74;38.96;100220.91;10543082;27;96439;-81
2022/06/02 12:41:26;;;;;;;;;;;28.70;59.30;;;28.04;38.06;100237.41;10556347;27;96757;-81
2022/06/02 12:46:57;;;;;;;0.05;0.05;;;28.90;57.60;;;28.02;37.34;100242.34;10554673;27;96616;-81
2022/06/02 12:52:44;;;;;;;0.50;0.30;;;29.00;56.90;;;27.98;38.06;100244.81;10569092;27;96943;-80
2022/06/02 12:58:19;;;;;;;0.20;0.10;;;28.90;57.40;;;28.13;37.30;100238.44;10570257;27;98294;-82
2022/06/02 13:04:23;;;;;;;0.15;0.10;;;29.00;55.00;;;28.20;36.99;100239.78;10559248;27;96668;-81
2022/06/02 13:10:18;;;;;;;0.22;0.20;;;29.10;56.30;;;28.40;37.00;100240.75;10545467;27;96761;-81
2022/06/02 13:15:35;;;;;;;0.20;0.10;;;29.20;55.50;;;28.35;37.35;100244.31;10565345;27;96990;-81
2022/06/02 13:20:54;;;;;;;0.20;0.15;;;29.30;56.10;;;28.39;36.18;100237.19;10584021;27;96542;-82
2022/06/02 13:26:48;;;;;;;0.38;0.20;;;29.30;55.20;;;28.46;36.20;100234.13;10566352;27;96608;-80
2022/06/02 13:32:51;;;;;;;0.35;0.20;;;29.40;54.40;;;28.59;35.50;100225.28;10594322;27;96483;-85
2022/06/02 13:38:18;;;;;;;0.45;0.20;;;29.50;54.10;;;28.66;36.12;100230.41;10568976;27;96672;-85
2022/06/02 13:44:19;;;;;;;0.25;0.20;;;29.60;54.40;;;28.57;36.34;100229.41;10594509;27;96900;-84
2022/06/02 13:49:59;;;;;;;;;;;29.60;54.90;;;28.75;35.28;100223.22;10572449;27;96665;-85
2022/06/02 14:01:26;;;;;;;0.10;0.10;;;30.00;52.20;;;28.82;34.71;100218.22;10553021;27;96635;-85
2022/06/02 14:07:06;;;;;;;0.15;0.10;;;30.00;52.40;;;28.89;34.46;100215.16;10588848;27;96683;-87
2022/06/02 14:12:38;;;;;;;0.20;0.20;;;30.00;50.80;;;28.99;34.90;100221.38;10513118;27;96679;-86
2022/06/02 14:17:56;;;;;;;0.20;0.10;;;30.00;52.80;;;29.11;33.09;100225.63;10551435;27;96647;-87
2022/06/02 14:23:34;;;;;;;0.00;0.00;;;30.10;50.40;;;29.15;33.34;100218.47;10556019;27;96711;-85
2022/06/02 14:28:57;;;;;;;0.25;0.10;;;30.20;50.90;;;28.99;32.10;100215.09;10568497;27;97240;-85
2022/06/02 14:34:21;;;;;;;0.20;0.20;;;30.00;48.50;;;28.65;32.96;100217.84;10582299;27;97631;-84
2022/06/02 14:39:49;;;;;;;0.30;0.20;;;29.60;50.10;;;28.52;33.06;100206.47;10545962;27;96652;-84
2022/06/02 14:45:11;;;;;;;1.02;0.30;;;29.40;49.60;;;28.50;33.50;100205.97;10558804;27;96619;-85
2022/06/02 14:50:28;;;;;;;1.05;0.30;;;29.40;51.10;;;28.51;33.43;100210.31;10557798;27;96641;-87
2022/06/02 14:56:32;;;;;;;0.22;0.10;;;29.40;49.90;;;28.23;33.86;100205.59;10574952;27;96616;-87
2022/06/02 15:02:14;;;;;;;0.03;0.00;;;29.20;50.50;;;28.05;34.03;100200.81;10549629;27;97155;-85
2022/06/02 15:08:02;;;;;;;0.85;0.52;;;29.00;51.30;;;28.11;33.58;100205.94;10555923;27;96517;-84
2022/06/02 15:13:56;;;;;;;0.15;0.10;;;29.10;49.30;;;28.28;34.64;100206.38;10572022;27;97200;-84
2022/06/02 15:19:49;;;;;;;0.10;0.10;;;29.20;51.90;;;28.38;34.75;100208.25;10548774;27;96680;-85
2022/06/02 15:25:52;;;;;;;0.10;0.00;;;29.40;51.60;;;28.65;34.08;100204.19;10549050;27;96694;-84
2022/06/02 15:31:13;;;;;;;0.10;0.10;;;29.60;50.30;;;28.99;32.99;100202.22;10581388;27;97402;-85
2022/06/02 15:37:02;;;;;;;0.10;0.10;;;30.10;49.50;;;29.07;31.94;100198.03;10548925;27;98432;-85
2022/06/02 15:42:39;;;;;;;0.10;0.10;;;30.10;48.20;;;29.08;32.37;100204.31;10551921;27;96506;-86
2022/06/02 15:48:21;;;;;;;0.47;0.25;;;30.10;48.90;;;29.01;33.22;100208.22;10541308;27;96573;-84
2022/06/02 15:53:49;;;;;;;0.30;0.22;;;29.90;50.10;;;28.84;31.73;100217.94;10576523;27;97010;-83
2022/06/02 15:59:17;;;;;;;0.20;0.20;;;29.60;48.20;;;28.65;33.10;100218.66;10565259;27;96907;-83
2022/06/02 16:05:02;;;;;;;0.30;0.20;;;29.40;49.90;;;28.49;32.16;100218.00;10574350;27;97197;-83
2022/06/02 16:11:16;;;;;;;0.00;0.00;;;29.30;48.50;;;28.41;32.41;100226.78;10547663;27;97724;-84
2022/06/02 16:16:35;;;;;;;0.10;0.10;;;29.20;49.20;;;28.15;31.66;100231.59;10513471;27;96655;-82
2022/06/02 16:22:12;;;;;;;0.08;0.08;;;29.00;48.00;;;27.98;33.13;100223.78;10455926;27;103662;-83
2022/06/02 16:27:58;;;;;;;0.20;0.10;;;28.80;49.20;;;27.95;32.22;100227.09;10492463;27;97391;-83
2022/06/02 16:33:37;;;;;;;0.38;0.20;;;28.80;47.90;;;27.66;31.67;100226.13;10508238;27;96707;-84
2022/06/02 16:39:28;;;;;;;1.05;0.30;;;28.50;47.90;;;27.33;33.02;100236.63;10464952;27;97561;-83
2022/06/02 16:44:46;;;;;;;0.43;0.10;;;28.20;49.60;;;27.10;33.50;100232.59;10499116;27;96785;-82
2022/06/02 16:50:14;;;;;;;0.40;0.30;;;28.00;49.60;;;26.97;33.75;100232.31;10502276;27;98670;-84
2022/06/02 16:55:48;;;;;;;0.10;0.08;;;27.80;49.60;;;26.84;32.95;100231.78;10499936;27;98330;-84
2022/06/02 17:01:19;;;;;;;0.45;0.22;;;27.70;48.60;;;26.77;33.44;100241.34;10460799;27;96547;-84
2022/06/02 17:07:00;;;;;;;0.10;0.10;;;27.70;49.10;;;26.63;33.29;100247.38;10445713;27;96702;-83
2022/06/02 17:12:21;;;;;;;0.10;0.10;;;27.50;49.10;;;26.45;33.52;100242.47;10501362;27;97519;-83
2022/06/02 17:17:42;;;;;;;0.20;0.10;;;27.40;49.50;;;26.19;34.54;100247.00;10532323;27;96522;-83
2022/06/02 17:23:10;;;;;;;0.13;0.10;;;27.20;50.30;;;25.98;34.74;100256.25;10510876;27;97417;-84
2022/06/02 17:29:07;;;;;;;0.47;0.30;;;27.00;50.60;;;25.83;35.05;100252.38;10517321;27;97139;-83
2022/06/02 17:34:16;;;;;;;0.10;0.10;;;26.80;50.70;;;25.75;35.78;100250.19;10552758;27;97347;-84
2022/06/02 17:39:56;;;;;;;0.10;0.10;;;26.70;51.70;;;25.49;36.72;100256.53;10552695;27;96844;-83
2022/06/02 17:45:13;;;;;;;0.15;0.15;;;26.50;52.40;;;25.19;37.93;100252.63;10493875;27;96592;-83
2022/06/02 17:50:37;;;;;;;0.43;0.20;;;26.30;53.50;;;24.90;38.54;100259.44;10509422;27;96484;-83
2022/06/02 17:55:58;;;;;;;0.50;0.20;;;26.10;54.00;;;24.56;39.65;100281.44;10527349;27;97047;-83
2022/06/02 18:01:10;;;;;;;0.25;0.20;;;25.70;54.70;;;24.17;40.02;100284.31;10551855;27;96506;-83
2022/06/02 18:06:26;;;;;;;0.30;0.10;;;25.40;54.60;;;23.87;41.14;100284.78;10551834;27;96427;-83
2022/06/02 18:11:48;;;;;;;0.65;0.30;;;25.10;55.70;;;23.58;41.41;100286.84;10516735;27;96513;-83
2022/06/02 18:17:26;;;;;;;0.10;0.10;;;24.80;56.00;;;23.29;42.01;100282.63;10551399;27;96457;-83
2022/06/02 18:22:59;;;;;;;0.50;0.30;;;24.50;57.30;;;22.90;43.43;100283.41;10532946;27;96693;-83
2022/06/02 18:28:42;;;;;;;0.40;0.25;;;24.10;58.80;;;22.51;44.18;100309.53;10549048;27;96668;-84
2022/06/02 18:34:52;;;;;;;1.38;0.40;;;23.70;59.30;;;22.20;44.67;100305.47;10552263;27;97404;-84
2022/06/02 18:40:42;;;;;;;0.68;0.47;;;23.40;59.80;;;21.96;45.08;100310.09;10523323;27;97010;-84
2022/06/02 18:46:12;;;;;;;0.28;0.20;;;23.10;60.40;;;21.79;44.54;100311.91;10550757;27;96525;-83
2022/06/02 18:51:46;;;;;;;0.05;0.05;;;22.80;59.10;;;21.67;44.57;100317.34;10548420;27;97247;-83
2022/06/02 18:57:43;;;;;;;0.00;0.00;;;22.70;59.20;;;21.62;44.60;100318.03;10550637;27;96505;-83
2022/06/02 19:03:01;;;;;;;0.40;0.30;;;22.60;59.40;;;21.64;44.17;100332.13;10518581;27;97768;-83
2022/06/02 19:14:33;;;;;;;0.20;0.20;;;22.70;58.30;;;21.64;44.19;100342.97;10530464;27;98303;-82
2022/06/02 19:20:41;;;;;;;0.30;0.20;;;22.80;58.60;;;21.66;43.48;100341.91;10533999;27;96642;-83
2022/06/02 19:25:53;;;;;;;0.47;0.28;;;22.80;57.50;;;21.69;42.58;100344.13;10534250;27;97619;-84
2022/06/02 19:31:36;;;;;;;0.05;0.05;;;22.70;56.90;;;21.71;42.65;100342.00;10525929;27;99137;-83
2022/06/02 19:36:50;;;;;;;0.77;0.50;;;22.80;57.80;;;21.73;42.69;100345.31;10541179;27;98435;-85
2022/06/02 19:42:09;;;;;;;0.30;0.20;;;22.70;57.40;;;21.73;42.34;100342.63;10546341;27;96887;-84
2022/06/02 19:47:48;;;;;;;0.20;0.20;;;22.80;56.70;;;21.73;42.04;100329.09;10527923;27;96907;-83
2022/06/02 19:53:12;;;;;;;0.52;0.40;;;22.80;56.70;;;21.70;42.45;100332.25;10531006;27;96545;-83
2022/06/02 19:58:56;;;;;;;0.38;0.25;;;22.80;57.10;;;21.67;42.60;100341.69;10509799;27;96688;-84
2022/06/02 20:04:04;;;;;;;0.75;0.20;;;22.80;56.80;;;21.59;42.29;100329.34;10528223;27;96800;-83
2022/06/02 20:09:17;;;;;;;0.30;0.25;;;22.70;56.80;;;21.54;42.38;100336.53;10544357;27;98880;-83
2022/06/02 20:14:37;;;;;;;0.15;0.10;;;22.70;56.70;;;21.47;42.03;100331.25;10543032;27;98991;-84
2022/06/02 20:19:54;;;;;;;0.50;0.23;;;22.60;57.30;;;21.43;42.79;100346.28;10527594;27;96657;-84
2022/06/02 20:25:15;;;;;;;0.38;0.20;;;22.60;57.00;;;21.37;41.86;100342.63;10535182;27;97533;-84
2022/06/02 20:30:31;;;;;;;0.28;0.22;;;22.50;56.00;;;21.38;42.09;100346.16;10510051;27;98246;-83
2022/06/02 20:36:05;;;;;;;0.10;0.10;;;22.50;56.60;;;21.35;41.90;100350.16;10521882;27;98318;-82
2022/06/02 20:41:29;;;;;;;1.23;0.40;;;22.50;56.40;;;21.33;41.65;100351.44;10514390;27;100153;-87
2022/06/02 20:46:54;;;;;;;0.40;0.32;;;22.50;55.90;;;21.31;41.71;100358.97;10539580;27;96758;-87
2022/06/02 20:52:06;;;;;;;0.40;0.40;;;22.40;56.00;;;21.28;41.54;100364.81;10536331;27;100104;-85
2022/06/02 20:57:57;;;;;;;0.30;0.20;;;22.40;56.00;;;21.28;41.39;100359.41;10539064;27;97923;-87
2022/06/02 21:03:10;;;;;;;0.20;0.20;;;22.40;55.70;;;21.30;41.12;100363.56;10507883;27;97449;-84
2022/06/02 21:08:37;;;;;;;0.28;0.28;;;22.40;55.80;;;21.32;41.85;100366.03;10552679;27;96600;-83
2022/06/02 21:14:04;;;;;;;0.82;0.30;;;22.40;56.30;;;21.32;42.11;100383.06;10545953;27;97431;-84
2022/06/02 21:19:33;;;;;;;0.65;0.30;;;22.50;56.50;;;21.26;43.30;100399.34;10502540;27;96468;-84
2022/06/02 21:24:36;;;;;;;0.65;0.35;;;22.40;58.00;;;21.15;43.34;100405.56;10490792;27;96825;-84
2022/06/02 21:29:48;;;;;;;0.35;0.25;;;22.30;57.50;;;21.02;43.22;100401.19;10497429;27;96604;-84
2022/06/02 21:34:56;;;;;;;0.52;0.35;;;22.20;57.20;;;20.99;43.41;100397.09;10513581;27;96651;-84
2022/06/02 21:40:27;;;;;;;0.10;0.05;;;22.10;57.40;;;20.95;42.99;100414.81;10511245;27;96879;-85
2022/06/02 21:45:48;;;;;;;;;;;22.10;57.00;;;20.98;42.30;100414.31;10497713;27;96613;-85
2022/06/02 21:50:58;;;;;;;0.30;0.20;;;22.10;55.70;;;21.03;42.13;100422.56;10503090;27;96608;-84
2022/06/02 21:56:27;;;;;;;0.30;0.20;;;22.10;56.60;;;21.04;42.34;100421.50;10520163;27;98502;-84
2022/06/02 22:01:44;;;;;;;0.38;0.30;;;22.10;56.50;;;21.01;42.35;100418.47;10519948;27;97684;-84
2022/06/02 22:07:13;;;;;;;0.30;0.20;;;22.10;56.80;;;20.98;42.76;100418.91;10538637;27;96522;-84
2022/06/02 22:12:43;;;;;;;0.73;0.52;;;22.10;57.00;;;20.93;42.60;100416.94;10495845;27;96935;-84
2022/06/02 22:18:25;;;;;;;0.20;0.20;;;22.10;56.80;;;20.87;42.92;100423.25;10541535;27;97372;-85
2022/06/02 22:23:28;;;;;;;0.20;0.20;;;22.10;57.10;;;20.78;43.07;100419.22;10535663;27;96459;-84
2022/06/02 22:29:27;;;;;;;0.10;0.10;;;22.00;57.00;;;20.66;43.34;100423.75;10546407;27;98504;-86
2022/06/02 22:34:59;;;;;;;0.35;0.28;;;21.90;57.50;;;20.53;43.87;100405.84;10545208;27;96642;-84
2022/06/02 22:40:19;;;;;;;0.20;0.20;;;21.70;57.60;;;20.38;44.28;100411.59;10512893;27;96703;-85
2022/06/02 22:45:28;;;;;;;;;;;21.60;58.00;;;20.24;45.30;100418.22;10510998;27;96660;-85
2022/06/02 22:50:59;;;;;;;0.77;0.45;;;21.50;59.40;;;20.02;45.90;100426.75;10508793;27;96642;-85
2022/06/02 22:56:10;;;;;;;0.38;0.38;;;21.30;59.40;;;19.72;47.01;100439.31;10534134;27;96759;-85
2022/06/02 23:01:34;;;;;;;0.25;0.22;;;21.00;60.60;;;19.47;46.62;100429.34;10506788;27;98352;-85
2022/06/02 23:07:14;;;;;;;0.38;0.38;;;20.80;60.40;;;19.25;46.91;100439.69;10550708;27;96472;-85
2022/06/02 23:12:32;;;;;;;0.20;0.20;;;20.50;60.70;;;19.11;47.48;100443.50;10547073;27;96618;-84
2022/06/02 23:18:05;;;;;;;0.52;0.45;;;20.30;61.20;;;18.96;47.95;100446.50;10543696;27;97333;-86